Flight Track Log - Related Links

Times and Time Zones

All times are in EDT time to prevent confusion due to time zone crossing. See the AWE1723 flight status page for this flight to view local times or setup timezone preferences in your user account.

Time Position Orientation Groundspeed Altitude Reporting Facility
EDT Latitude Longitude Course Direction KTS MPH feet Rate Location/Type
Mon 06:26:22 PM 35.2328 -80.9392 193° South 177 204 1,400  Level Atlanta Center
Mon 06:27:17 PM 35.2781 -80.9247 15° North 201 231 3,200 2,483 Climbing Atlanta Center
Mon 06:28:00 PM 34.8678 -80.9159 175° South  Level Estimated
Mon 06:28:18 PM 35.3033 -80.8475 68° East 277 319 6,200  Level Atlanta Center
Mon 06:28:55 PM 35.3000 -80.7992 95° East 266 306 7,700 2,412 Climbing Atlanta Center
Mon 06:29:00 PM 34.7525 -80.9050 180° South  Level Estimated
Mon 06:29:55 PM 35.2725 -80.7061 110° East 275 316 10,100  Level Atlanta Center
Mon 06:30:00 PM 34.6372 -80.8940 180° South  Level Estimated
Mon 06:30:55 PM 35.1806 -80.7047 179° South 249 287 11,600  Level Atlanta Center
Mon 06:31:00 PM 34.5219 -80.8831 193° South  Level Estimated
Mon 06:31:55 PM 35.0786 -80.7139 184° South 330 380 14,700  Level Atlanta Center
Mon 06:33:38 PM 34.8947 -80.7489 189° South 392 451 18,400 2,061 Climbing Jacksonville Center
Mon 06:34:38 PM 34.7822 -80.7669 188° South 403 464 20,300 1,950 Climbing Jacksonville Center
Mon 06:35:38 PM 34.6658 -80.7847 187° South 418 481 22,300 1,950 Climbing Jacksonville Center
Mon 06:36:38 PM 34.5431 -80.8106 190° South 437 503 24,200 1,750 Climbing Jacksonville Center
Mon 06:37:38 PM 34.4222 -80.8108 180° South 443 510 25,800 1,500 Climbing Jacksonville Center
Mon 06:38:38 PM 34.2989 -80.7939 174° South 443 510 27,200 1,350 Climbing Jacksonville Center
Mon 06:39:38 PM 34.1881 -80.7789 174° South 443 510 28,500 1,650 Climbing Jacksonville Center
Mon 06:40:38 PM 34.0625 -80.7644 175° South 448 516 30,500 1,650 Climbing Jacksonville Center
Mon 06:41:38 PM 33.9392 -80.7522 175° South 448 516 31,800 1,250 Climbing Jacksonville Center
Mon 06:42:38 PM 33.8158 -80.7378 174° South 448 516 33,000 1,250 Climbing Jacksonville Center
Mon 06:43:38 PM 33.6906 -80.7233 175° South 443 510 34,300 1,100 Climbing Jacksonville Center
Mon 06:44:38 PM 33.5694 -80.7189 178° South 443 510 35,200 850 Climbing Jacksonville Center
Mon 06:45:38 PM 33.4444 -80.7369 187° South 438 504 36,000 400 Climbing Jacksonville Center
Mon 06:46:38 PM 33.3217 -80.7572 188° South 443 510 36,000  Level Jacksonville Center
Mon 06:47:38 PM 33.1967 -80.7778 188° South 449 517 36,000 -50 Level Jacksonville Center
Mon 06:48:38 PM 33.0739 -80.7978 188° South 449 517 35,900  Descending Jacksonville Center
Mon 06:49:38 PM 32.9386 -80.8158 186° South 449 517 36,000 50 Climbing Jacksonville Center
Mon 06:50:38 PM 32.8158 -80.8336 187° South 449 517 36,000  Level Jacksonville Center
Mon 06:51:38 PM 32.6931 -80.8586 190° South 449 517 36,000  Level Jacksonville Center
Mon 06:52:38 PM 32.5725 -80.8883 192° South 443 510 36,000  Level Jacksonville Center
Mon 06:53:38 PM 32.4517 -80.9181 192° South 443 510 36,000  Level Jacksonville Center
Mon 06:54:38 PM 32.3311 -80.9428 190° South 450 518 36,000  Level Jacksonville Center
Mon 06:55:38 PM 32.2147 -80.9872 198° South 445 512 36,000  Level Jacksonville Center
Mon 06:56:38 PM 32.0983 -81.0067 188° South 455 524 36,000  Level Jacksonville Center
Mon 06:57:38 PM 31.9628 -81.0339 190° South 462 532 36,000  Level Jacksonville Center
Mon 06:58:38 PM 31.8381 -81.0583 189° South 462 532 36,000  Level Jacksonville Center
Mon 06:59:38 PM 31.7275 -81.0606 181° South 456 525 36,000  Level Jacksonville Center
Mon 07:00:38 PM 31.5933 -81.0317 170° South 453 521 36,000  Level Jacksonville Center
Mon 07:01:38 PM 31.4697 -81.0047 169° South 450 518 36,000  Level Jacksonville Center
Mon 07:02:38 PM 31.3608 -80.9828 170° South 445 512 36,000  Level Jacksonville Center
Mon 07:03:38 PM 31.2269 -80.9564 170° South 445 512 36,000  Level Jacksonville Center
Mon 07:04:38 PM 31.1033 -80.9272 169° South 444 511 36,000  Level Jacksonville Center
Mon 07:05:38 PM 30.9817 -80.9031 170° South 449 517 36,000  Level Jacksonville Center
Mon 07:06:38 PM 30.8581 -80.8767 170° South 449 517 36,000  Level Jacksonville Center
Mon 07:07:38 PM 30.7325 -80.8503 170° South 449 517 36,000  Level Jacksonville Center
Mon 07:08:38 PM 30.6108 -80.8264 170° South 449 517 36,000  Level Jacksonville Center
Mon 07:09:38 PM 30.4894 -80.8003 169° South 449 517 36,000  Level Jacksonville Center
Mon 07:10:38 PM 30.3636 -80.7742 170° South 449 517 36,000 -50 Level Jacksonville Center
Mon 07:11:38 PM 30.2442 -80.7431 167° South 449 517 35,900  Descending Jacksonville Center
Mon 07:12:38 PM 30.1336 -80.7383 178° South 449 517 36,000 50 Climbing Jacksonville Center
Mon 07:13:38 PM 30.0089 -80.7747 194° South 443 510 36,000  Level Jacksonville Center
Mon 07:14:38 PM 29.8861 -80.8061 192° South 450 518 36,000  Level Jacksonville Center
Mon 07:15:38 PM 29.7569 -80.8161 184° South 456 525 36,000  Level Jacksonville Center
Mon 07:16:38 PM 29.6311 -80.7900 170° South 456 525 36,000  Level Jacksonville Center
Mon 07:18:54 PM 29.3469 -80.6817 162° South 463 533 36,000  Level Miami Center
Mon 07:19:54 PM 29.2275 -80.6322 160° South 463 533 36,000  Level Miami Center
Mon 07:20:54 PM 29.1056 -80.5878 162° South 458 527 36,000  Level Miami Center
Mon 07:21:54 PM 28.9981 -80.5461 161° South 458 527 36,000  Level Miami Center
Mon 07:22:54 PM 28.8681 -80.4944 161° South 458 527 36,000  Level Miami Center
Mon 07:23:54 PM 28.7586 -80.4506 161° South 458 527 36,000 -200 Level Miami Center
Mon 07:24:54 PM 28.6286 -80.3897 158° South 458 527 35,600 -700 Descending Miami Center
Mon 07:25:54 PM 28.5111 -80.3342 157° South 465 535 34,600 -800 Descending Miami Center
Mon 07:26:54 PM 28.3933 -80.2808 158° South 465 535 34,000 -300 Descending Miami Center
Mon 07:27:54 PM 28.2842 -80.2281 157° South 465 535 34,000  Level Miami Center
Mon 07:28:54 PM 28.1622 -80.1725 158° South 465 535 34,000  Level Miami Center
Mon 07:29:54 PM 28.0342 -80.1100 157° South 465 535 34,000  Level Miami Center
Mon 07:30:54 PM 27.9122 -80.0547 158° South 470 541 34,000  Level Miami Center
Mon 07:31:54 PM 27.8008 -80.0025 157° South 470 541 34,000 -350 Level Miami Center
Mon 07:32:54 PM 27.6808 -79.9475 158° South 470 541 33,300 -2,050 Descending Miami Center
Mon 07:33:54 PM 27.5567 -79.8903 158° South 470 541 29,900 -3,450 Descending Miami Center
Mon 07:34:54 PM 27.4264 -79.8308 158° South 467 537 26,400 -3,000 Descending Miami Center
Mon 07:35:54 PM 27.3086 -79.7786 158° South 462 532 23,900 -2,150 Descending Miami Center
Mon 07:36:54 PM 27.1944 -79.7431 165° South 443 510 22,100 -1,950 Descending Miami Center
Mon 07:37:54 PM 27.0969 -79.7125 164° South 413 475 20,000 -2,100 Descending Miami Center
Mon 07:38:54 PM 26.9889 -79.6819 166° South 402 463 17,900 -2,200 Descending Miami Center
Mon 07:39:54 PM 26.8767 -79.6467 164° South 387 445 15,600 -2,200 Descending Miami Center
Mon 07:40:54 PM 26.7717 -79.6744 193° South 376 433 13,500 -1,950 Descending Miami Center
Mon 07:41:54 PM 26.6811 -79.7186 204° Southwest 387 445 11,700 -1,950 Descending Miami Center
Mon 07:42:54 PM 26.5758 -79.7672 202° Southwest 387 445 9,600 -1,800 Descending Miami Center
Mon 07:43:54 PM 26.4956 -79.8072 204° Southwest 360 414 8,100 -800 Descending Miami Center
Mon 07:44:54 PM 26.4092 -79.8467 202° Southwest 331 381 8,000 -50 Descending Miami Center
Mon 07:45:54 PM 26.3475 -79.8914 213° Southwest 301 346 8,000  Level Miami Center
Mon 07:46:54 PM 26.2794 -79.9569 221° Southwest 296 341 8,000 -600 Level Miami Center
Mon 07:47:54 PM 26.2258 -80.0136 223° Southwest 296 341 6,800 -1,050 Descending Miami Center
Mon 07:48:54 PM 26.1703 -80.0792 227° Southwest 291 335 5,900 -1,000 Descending Miami Center
Mon 07:49:24 PM 26.1567 -80.1272 252° West 264 304 5,300 -1,200 Descending Miami Center
Mon 07:49:54 PM 26.1497 -80.1550 254° West 277 319 4,700 -1,279 Descending Miami Center
Mon 07:50:25 PM 26.1339 -80.2031 250° West 236 272 4,000 -1,109 Descending Miami Center
Mon 07:51:26 PM 26.1219 -80.2722 259° West 247 284 3,000 -517 Descending Miami Center
Mon 07:52:21 PM 26.1225 -80.3417 271° West 243 280 3,000 -517 Level Miami Center
Mon 07:53:22 PM 26.0961 -80.3986 243° Southwest 227 261 2,000 -517 Descending Miami Center
Mon 07:54:17 PM 26.0700 -80.3517 122° Southeast 205 236 2,000  Level Miami Center

Login

Don't have an account? Register now (free) for customized features, flight alerts, and more!